sensor_id;sensor_type;location;lat;lon;timestamp;P1;durP1;ratioP1;P2;durP2;ratioP2
28625;SDS011;18905;42.668;23.364;2023-11-19T00:02:11;5.28;;;3.20;;
28625;SDS011;18905;42.668;23.364;2023-11-19T00:04:37;4.32;;;2.83;;
28625;SDS011;18905;42.668;23.364;2023-11-19T00:07:04;4.22;;;3.22;;
28625;SDS011;18905;42.668;23.364;2023-11-19T00:09:31;5.20;;;3.15;;
28625;SDS011;18905;42.668;23.364;2023-11-19T00:11:57;3.22;;;2.45;;
28625;SDS011;18905;42.668;23.364;2023-11-19T00:14:22;5.20;;;4.10;;
28625;SDS011;18905;42.668;23.364;2023-11-19T00:16:49;8.60;;;3.63;;
28625;SDS011;18905;42.668;23.364;2023-11-19T00:19:16;4.82;;;3.10;;
28625;SDS011;18905;42.668;23.364;2023-11-19T00:21:41;5.43;;;3.40;;
28625;SDS011;18905;42.668;23.364;2023-11-19T00:24:07;5.78;;;2.90;;
28625;SDS011;18905;42.668;23.364;2023-11-19T00:26:33;3.88;;;3.22;;
28625;SDS011;18905;42.668;23.364;2023-11-19T00:28:59;4.70;;;3.13;;
28625;SDS011;18905;42.668;23.364;2023-11-19T00:31:25;5.22;;;3.58;;
28625;SDS011;18905;42.668;23.364;2023-11-19T00:33:51;5.38;;;3.38;;
28625;SDS011;18905;42.668;23.364;2023-11-19T00:36:17;6.07;;;3.47;;
28625;SDS011;18905;42.668;23.364;2023-11-19T00:38:42;3.25;;;2.30;;
28625;SDS011;18905;42.668;23.364;2023-11-19T00:41:08;4.30;;;2.83;;
28625;SDS011;18905;42.668;23.364;2023-11-19T00:43:33;5.47;;;3.55;;
28625;SDS011;18905;42.668;23.364;2023-11-19T00:45:59;3.83;;;3.25;;
28625;SDS011;18905;42.668;23.364;2023-11-19T00:48:25;3.55;;;3.03;;
28625;SDS011;18905;42.668;23.364;2023-11-19T00:50:51;4.78;;;3.00;;
28625;SDS011;18905;42.668;23.364;2023-11-19T00:53:17;4.35;;;3.13;;
28625;SDS011;18905;42.668;23.364;2023-11-19T00:55:42;4.90;;;3.40;;
28625;SDS011;18905;42.668;23.364;2023-11-19T00:58:07;5.25;;;3.45;;
28625;SDS011;18905;42.668;23.364;2023-11-19T01:00:33;4.63;;;2.67;;
28625;SDS011;18905;42.668;23.364;2023-11-19T01:02:59;4.03;;;2.70;;
28625;SDS011;18905;42.668;23.364;2023-11-19T01:05:25;6.88;;;4.25;;
28625;SDS011;18905;42.668;23.364;2023-11-19T01:07:51;4.88;;;3.47;;
28625;SDS011;18905;42.668;23.364;2023-11-19T01:10:18;4.03;;;3.28;;
28625;SDS011;18905;42.668;23.364;2023-11-19T01:12:44;4.53;;;3.20;;
28625;SDS011;18905;42.668;23.364;2023-11-19T01:15:09;4.10;;;2.75;;
28625;SDS011;18905;42.668;23.364;2023-11-19T01:17:36;3.95;;;3.35;;
28625;SDS011;18905;42.668;23.364;2023-11-19T01:20:03;4.35;;;3.13;;
28625;SDS011;18905;42.668;23.364;2023-11-19T01:22:31;4.10;;;3.25;;
28625;SDS011;18905;42.668;23.364;2023-11-19T01:24:57;4.20;;;3.28;;
28625;SDS011;18905;42.668;23.364;2023-11-19T01:27:23;5.30;;;2.95;;
28625;SDS011;18905;42.668;23.364;2023-11-19T01:29:49;4.25;;;2.58;;
28625;SDS011;18905;42.668;23.364;2023-11-19T01:32:15;3.35;;;2.65;;
28625;SDS011;18905;42.668;23.364;2023-11-19T01:34:40;3.20;;;2.70;;
28625;SDS011;18905;42.668;23.364;2023-11-19T01:37:06;3.40;;;2.80;;
28625;SDS011;18905;42.668;23.364;2023-11-19T01:39:31;4.75;;;3.17;;
28625;SDS011;18905;42.668;23.364;2023-11-19T01:41:57;4.68;;;3.15;;
28625;SDS011;18905;42.668;23.364;2023-11-19T01:44:22;5.28;;;3.28;;
28625;SDS011;18905;42.668;23.364;2023-11-19T01:46:48;2.42;;;2.15;;
28625;SDS011;18905;42.668;23.364;2023-11-19T01:49:17;5.30;;;2.83;;
28625;SDS011;18905;42.668;23.364;2023-11-19T01:51:44;3.88;;;2.95;;
28625;SDS011;18905;42.668;23.364;2023-11-19T01:54:10;2.92;;;1.85;;
28625;SDS011;18905;42.668;23.364;2023-11-19T01:56:37;3.53;;;2.75;;
28625;SDS011;18905;42.668;23.364;2023-11-19T01:59:05;3.78;;;2.92;;
28625;SDS011;18905;42.668;23.364;2023-11-19T02:01:32;3.15;;;2.45;;
28625;SDS011;18905;42.668;23.364;2023-11-19T02:04:03;7.50;;;3.15;;
28625;SDS011;18905;42.668;23.364;2023-11-19T02:06:29;4.00;;;2.90;;
28625;SDS011;18905;42.668;23.364;2023-11-19T02:08:57;4.65;;;3.45;;
28625;SDS011;18905;42.668;23.364;2023-11-19T02:11:22;4.05;;;2.88;;
28625;SDS011;18905;42.668;23.364;2023-11-19T02:13:48;3.85;;;2.40;;
28625;SDS011;18905;42.668;23.364;2023-11-19T02:16:13;2.83;;;2.40;;
28625;SDS011;18905;42.668;23.364;2023-11-19T02:18:39;4.10;;;2.95;;
28625;SDS011;18905;42.668;23.364;2023-11-19T02:21:04;6.53;;;2.83;;
28625;SDS011;18905;42.668;23.364;2023-11-19T02:23:30;5.93;;;2.90;;
28625;SDS011;18905;42.668;23.364;2023-11-19T02:28:30;2.50;;;2.17;;
28625;SDS011;18905;42.668;23.364;2023-11-19T02:30:58;3.42;;;2.75;;
28625;SDS011;18905;42.668;23.364;2023-11-19T02:33:23;4.40;;;2.90;;
28625;SDS011;18905;42.668;23.364;2023-11-19T02:35:49;4.07;;;3.17;;
28625;SDS011;18905;42.668;23.364;2023-11-19T02:38:16;4.38;;;3.13;;
28625;SDS011;18905;42.668;23.364;2023-11-19T02:40:41;3.38;;;2.58;;
28625;SDS011;18905;42.668;23.364;2023-11-19T02:43:07;4.28;;;2.92;;
28625;SDS011;18905;42.668;23.364;2023-11-19T02:45:33;4.80;;;3.20;;
28625;SDS011;18905;42.668;23.364;2023-11-19T02:47:59;4.85;;;3.40;;
28625;SDS011;18905;42.668;23.364;2023-11-19T02:50:26;3.55;;;3.10;;
28625;SDS011;18905;42.668;23.364;2023-11-19T02:52:53;7.18;;;3.13;;
28625;SDS011;18905;42.668;23.364;2023-11-19T02:55:21;4.10;;;2.78;;
28625;SDS011;18905;42.668;23.364;2023-11-19T02:57:48;3.58;;;2.85;;
28625;SDS011;18905;42.668;23.364;2023-11-19T03:00:15;3.45;;;2.60;;
28625;SDS011;18905;42.668;23.364;2023-11-19T03:02:42;4.25;;;3.05;;
28625;SDS011;18905;42.668;23.364;2023-11-19T03:05:14;4.05;;;2.72;;
28625;SDS011;18905;42.668;23.364;2023-11-19T03:07:41;2.08;;;1.52;;
28625;SDS011;18905;42.668;23.364;2023-11-19T03:10:10;4.70;;;3.40;;
28625;SDS011;18905;42.668;23.364;2023-11-19T03:12:40;4.50;;;2.70;;
28625;SDS011;18905;42.668;23.364;2023-11-19T03:15:05;4.05;;;2.80;;
28625;SDS011;18905;42.668;23.364;2023-11-19T03:17:32;3.45;;;2.80;;
28625;SDS011;18905;42.668;23.364;2023-11-19T03:19:57;4.78;;;2.92;;
28625;SDS011;18905;42.668;23.364;2023-11-19T03:22:23;3.17;;;2.63;;
28625;SDS011;18905;42.668;23.364;2023-11-19T03:24:50;3.70;;;2.83;;
28625;SDS011;18905;42.668;23.364;2023-11-19T03:27:16;3.97;;;3.13;;
28625;SDS011;18905;42.668;23.364;2023-11-19T03:29:41;3.30;;;2.60;;
28625;SDS011;18905;42.668;23.364;2023-11-19T03:32:07;4.97;;;3.22;;
28625;SDS011;18905;42.668;23.364;2023-11-19T03:34:32;4.78;;;3.05;;
28625;SDS011;18905;42.668;23.364;2023-11-19T03:36:58;4.68;;;3.00;;
28625;SDS011;18905;42.668;23.364;2023-11-19T03:39:23;4.25;;;2.97;;
28625;SDS011;18905;42.668;23.364;2023-11-19T03:41:50;4.07;;;2.50;;
28625;SDS011;18905;42.668;23.364;2023-11-19T03:44:15;7.18;;;3.47;;
28625;SDS011;18905;42.668;23.364;2023-11-19T03:46:41;3.78;;;3.08;;
28625;SDS011;18905;42.668;23.364;2023-11-19T03:49:07;3.20;;;2.67;;
28625;SDS011;18905;42.668;23.364;2023-11-19T03:51:32;5.88;;;3.17;;
28625;SDS011;18905;42.668;23.364;2023-11-19T03:53:59;6.45;;;3.92;;
28625;SDS011;18905;42.668;23.364;2023-11-19T03:56:25;4.97;;;3.63;;
28625;SDS011;18905;42.668;23.364;2023-11-19T03:58:52;5.28;;;3.17;;
28625;SDS011;18905;42.668;23.364;2023-11-19T04:01:17;3.65;;;2.80;;
28625;SDS011;18905;42.668;23.364;2023-11-19T04:03:43;3.25;;;2.92;;
28625;SDS011;18905;42.668;23.364;2023-11-19T04:06:08;4.60;;;3.33;;
28625;SDS011;18905;42.668;23.364;2023-11-19T04:08:34;3.47;;;2.42;;
28625;SDS011;18905;42.668;23.364;2023-11-19T04:11:00;5.05;;;3.20;;
28625;SDS011;18905;42.668;23.364;2023-11-19T04:13:26;3.55;;;3.00;;
28625;SDS011;18905;42.668;23.364;2023-11-19T04:15:52;4.82;;;3.03;;
28625;SDS011;18905;42.668;23.364;2023-11-19T04:18:17;3.15;;;2.25;;
28625;SDS011;18905;42.668;23.364;2023-11-19T04:20:42;4.18;;;2.63;;
28625;SDS011;18905;42.668;23.364;2023-11-19T04:23:08;2.92;;;1.95;;
28625;SDS011;18905;42.668;23.364;2023-11-19T04:25:34;3.63;;;2.42;;
28625;SDS011;18905;42.668;23.364;2023-11-19T04:28:00;4.40;;;2.78;;
28625;SDS011;18905;42.668;23.364;2023-11-19T04:30:26;3.47;;;2.50;;
28625;SDS011;18905;42.668;23.364;2023-11-19T04:32:51;4.18;;;3.03;;
28625;SDS011;18905;42.668;23.364;2023-11-19T04:35:16;4.55;;;2.85;;
28625;SDS011;18905;42.668;23.364;2023-11-19T04:37:42;3.28;;;2.70;;
28625;SDS011;18905;42.668;23.364;2023-11-19T04:40:07;4.30;;;3.30;;
28625;SDS011;18905;42.668;23.364;2023-11-19T04:42:34;3.75;;;1.80;;
28625;SDS011;18905;42.668;23.364;2023-11-19T04:45:00;5.65;;;2.58;;
28625;SDS011;18905;42.668;23.364;2023-11-19T04:47:25;4.45;;;3.00;;
28625;SDS011;18905;42.668;23.364;2023-11-19T04:49:50;6.00;;;3.72;;
28625;SDS011;18905;42.668;23.364;2023-11-19T04:52:16;3.72;;;2.90;;
28625;SDS011;18905;42.668;23.364;2023-11-19T04:54:41;3.15;;;2.22;;
28625;SDS011;18905;42.668;23.364;2023-11-19T04:57:08;3.53;;;2.60;;
28625;SDS011;18905;42.668;23.364;2023-11-19T04:59:37;2.70;;;2.28;;
28625;SDS011;18905;42.668;23.364;2023-11-19T05:02:03;4.13;;;2.80;;
28625;SDS011;18905;42.668;23.364;2023-11-19T05:04:29;2.67;;;2.25;;
28625;SDS011;18905;42.668;23.364;2023-11-19T05:06:54;5.78;;;3.10;;
28625;SDS011;18905;42.668;23.364;2023-11-19T05:09:20;3.92;;;2.80;;
28625;SDS011;18905;42.668;23.364;2023-11-19T05:11:45;3.42;;;2.22;;
28625;SDS011;18905;42.668;23.364;2023-11-19T05:14:11;4.63;;;3.22;;
28625;SDS011;18905;42.668;23.364;2023-11-19T05:16:38;4.22;;;2.92;;
28625;SDS011;18905;42.668;23.364;2023-11-19T05:19:04;5.50;;;3.03;;
28625;SDS011;18905;42.668;23.364;2023-11-19T05:21:30;3.83;;;2.20;;
28625;SDS011;18905;42.668;23.364;2023-11-19T05:23:55;7.32;;;3.03;;
28625;SDS011;18905;42.668;23.364;2023-11-19T05:26:22;4.47;;;3.28;;
28625;SDS011;18905;42.668;23.364;2023-11-19T05:28:48;3.45;;;3.00;;
28625;SDS011;18905;42.668;23.364;2023-11-19T05:31:15;4.45;;;3.08;;
28625;SDS011;18905;42.668;23.364;2023-11-19T05:33:42;4.63;;;3.40;;
28625;SDS011;18905;42.668;23.364;2023-11-19T05:36:08;4.88;;;2.33;;
28625;SDS011;18905;42.668;23.364;2023-11-19T05:38:36;4.20;;;2.90;;
28625;SDS011;18905;42.668;23.364;2023-11-19T05:41:02;3.78;;;2.67;;
28625;SDS011;18905;42.668;23.364;2023-11-19T05:43:28;4.13;;;2.90;;
28625;SDS011;18905;42.668;23.364;2023-11-19T05:45:53;3.50;;;2.80;;
28625;SDS011;18905;42.668;23.364;2023-11-19T05:48:18;3.10;;;2.42;;
28625;SDS011;18905;42.668;23.364;2023-11-19T05:50:44;4.40;;;2.85;;
28625;SDS011;18905;42.668;23.364;2023-11-19T05:53:09;3.13;;;2.05;;
28625;SDS011;18905;42.668;23.364;2023-11-19T05:55:38;5.05;;;2.70;;
28625;SDS011;18905;42.668;23.364;2023-11-19T05:58:11;2.55;;;2.10;;
28625;SDS011;18905;42.668;23.364;2023-11-19T06:00:37;11.50;;;3.33;;
28625;SDS011;18905;42.668;23.364;2023-11-19T06:03:04;3.50;;;2.33;;
28625;SDS011;18905;42.668;23.364;2023-11-19T06:05:29;5.38;;;3.42;;
28625;SDS011;18905;42.668;23.364;2023-11-19T06:07:55;5.25;;;3.65;;
28625;SDS011;18905;42.668;23.364;2023-11-19T06:10:20;4.53;;;3.22;;
28625;SDS011;18905;42.668;23.364;2023-11-19T06:12:46;5.88;;;3.60;;
28625;SDS011;18905;42.668;23.364;2023-11-19T06:15:12;4.68;;;3.03;;
28625;SDS011;18905;42.668;23.364;2023-11-19T06:17:38;5.07;;;3.70;;
28625;SDS011;18905;42.668;23.364;2023-11-19T06:20:04;5.45;;;3.53;;
28625;SDS011;18905;42.668;23.364;2023-11-19T06:22:30;5.65;;;3.42;;
28625;SDS011;18905;42.668;23.364;2023-11-19T06:24:56;3.22;;;2.58;;
28625;SDS011;18905;42.668;23.364;2023-11-19T06:27:21;3.88;;;2.90;;
28625;SDS011;18905;42.668;23.364;2023-11-19T06:29:47;5.40;;;3.45;;
28625;SDS011;18905;42.668;23.364;2023-11-19T06:32:12;4.43;;;2.97;;
28625;SDS011;18905;42.668;23.364;2023-11-19T06:34:38;6.78;;;3.97;;
28625;SDS011;18905;42.668;23.364;2023-11-19T06:37:03;9.70;;;5.68;;
28625;SDS011;18905;42.668;23.364;2023-11-19T06:39:29;5.30;;;3.88;;
28625;SDS011;18905;42.668;23.364;2023-11-19T06:41:54;5.90;;;3.60;;
28625;SDS011;18905;42.668;23.364;2023-11-19T06:44:20;5.28;;;3.78;;
28625;SDS011;18905;42.668;23.364;2023-11-19T06:46:45;4.75;;;3.30;;
28625;SDS011;18905;42.668;23.364;2023-11-19T06:49:11;6.75;;;3.83;;
28625;SDS011;18905;42.668;23.364;2023-11-19T06:51:41;4.90;;;2.97;;
28625;SDS011;18905;42.668;23.364;2023-11-19T06:54:07;5.90;;;3.10;;
28625;SDS011;18905;42.668;23.364;2023-11-19T06:56:32;3.40;;;2.58;;
28625;SDS011;18905;42.668;23.364;2023-11-19T06:58:57;5.68;;;3.75;;
28625;SDS011;18905;42.668;23.364;2023-11-19T07:01:23;5.15;;;3.55;;
28625;SDS011;18905;42.668;23.364;2023-11-19T07:03:48;6.05;;;3.58;;
28625;SDS011;18905;42.668;23.364;2023-11-19T07:06:14;6.10;;;3.75;;
28625;SDS011;18905;42.668;23.364;2023-11-19T07:08:42;6.47;;;3.28;;
28625;SDS011;18905;42.668;23.364;2023-11-19T07:11:12;5.25;;;3.38;;
28625;SDS011;18905;42.668;23.364;2023-11-19T07:13:39;3.47;;;2.30;;
28625;SDS011;18905;42.668;23.364;2023-11-19T07:16:06;3.85;;;2.80;;
28625;SDS011;18905;42.668;23.364;2023-11-19T07:18:34;4.32;;;3.03;;
28625;SDS011;18905;42.668;23.364;2023-11-19T07:21:00;5.90;;;3.38;;
28625;SDS011;18905;42.668;23.364;2023-11-19T07:23:28;7.03;;;3.60;;
28625;SDS011;18905;42.668;23.364;2023-11-19T07:25:53;4.75;;;3.72;;
28625;SDS011;18905;42.668;23.364;2023-11-19T07:28:18;5.93;;;3.03;;
28625;SDS011;18905;42.668;23.364;2023-11-19T07:30:44;6.22;;;3.60;;
28625;SDS011;18905;42.668;23.364;2023-11-19T07:33:09;4.95;;;3.60;;
28625;SDS011;18905;42.668;23.364;2023-11-19T07:35:35;5.85;;;3.85;;
28625;SDS011;18905;42.668;23.364;2023-11-19T07:38:00;8.05;;;3.88;;
28625;SDS011;18905;42.668;23.364;2023-11-19T07:40:25;7.40;;;4.25;;
28625;SDS011;18905;42.668;23.364;2023-11-19T07:42:51;6.00;;;3.90;;
28625;SDS011;18905;42.668;23.364;2023-11-19T07:45:17;5.25;;;3.60;;
28625;SDS011;18905;42.668;23.364;2023-11-19T07:47:42;4.85;;;4.03;;
28625;SDS011;18905;42.668;23.364;2023-11-19T07:50:11;5.65;;;3.67;;
28625;SDS011;18905;42.668;23.364;2023-11-19T07:52:39;8.95;;;3.65;;
28625;SDS011;18905;42.668;23.364;2023-11-19T07:55:04;5.55;;;4.10;;
28625;SDS011;18905;42.668;23.364;2023-11-19T07:57:30;5.93;;;3.70;;
28625;SDS011;18905;42.668;23.364;2023-11-19T07:59:56;6.07;;;4.07;;
28625;SDS011;18905;42.668;23.364;2023-11-19T08:02:22;4.22;;;2.60;;
28625;SDS011;18905;42.668;23.364;2023-11-19T08:04:48;4.20;;;2.92;;
28625;SDS011;18905;42.668;23.364;2023-11-19T08:07:16;3.40;;;2.58;;
28625;SDS011;18905;42.668;23.364;2023-11-19T08:09:42;4.47;;;3.40;;
28625;SDS011;18905;42.668;23.364;2023-11-19T08:12:08;5.03;;;3.35;;
28625;SDS011;18905;42.668;23.364;2023-11-19T08:14:34;8.23;;;4.78;;
28625;SDS011;18905;42.668;23.364;2023-11-19T08:17:00;4.32;;;2.95;;
28625;SDS011;18905;42.668;23.364;2023-11-19T08:19:25;4.97;;;3.33;;
28625;SDS011;18905;42.668;23.364;2023-11-19T08:21:51;7.38;;;3.55;;
28625;SDS011;18905;42.668;23.364;2023-11-19T08:24:16;6.13;;;4.40;;
28625;SDS011;18905;42.668;23.364;2023-11-19T08:26:42;5.22;;;3.15;;
28625;SDS011;18905;42.668;23.364;2023-11-19T08:29:08;5.20;;;3.53;;
28625;SDS011;18905;42.668;23.364;2023-11-19T08:31:34;5.50;;;4.22;;
28625;SDS011;18905;42.668;23.364;2023-11-19T08:34:00;7.03;;;4.30;;
28625;SDS011;18905;42.668;23.364;2023-11-19T08:36:25;3.85;;;3.13;;
28625;SDS011;18905;42.668;23.364;2023-11-19T08:38:51;7.32;;;4.13;;
28625;SDS011;18905;42.668;23.364;2023-11-19T08:41:16;5.72;;;3.67;;
28625;SDS011;18905;42.668;23.364;2023-11-19T08:43:43;7.65;;;3.70;;
28625;SDS011;18905;42.668;23.364;2023-11-19T08:46:11;4.53;;;3.78;;
28625;SDS011;18905;42.668;23.364;2023-11-19T08:48:37;6.20;;;3.53;;
28625;SDS011;18905;42.668;23.364;2023-11-19T08:51:03;5.70;;;3.85;;
28625;SDS011;18905;42.668;23.364;2023-11-19T08:53:29;5.15;;;3.15;;
28625;SDS011;18905;42.668;23.364;2023-11-19T08:55:55;4.68;;;3.25;;
28625;SDS011;18905;42.668;23.364;2023-11-19T08:58:20;4.57;;;3.42;;
28625;SDS011;18905;42.668;23.364;2023-11-19T09:00:45;5.50;;;3.30;;
28625;SDS011;18905;42.668;23.364;2023-11-19T09:03:11;5.50;;;3.25;;
28625;SDS011;18905;42.668;23.364;2023-11-19T09:05:36;4.70;;;3.38;;
28625;SDS011;18905;42.668;23.364;2023-11-19T09:08:02;4.30;;;2.75;;
28625;SDS011;18905;42.668;23.364;2023-11-19T09:10:27;4.45;;;3.28;;
28625;SDS011;18905;42.668;23.364;2023-11-19T09:12:54;5.20;;;3.70;;
28625;SDS011;18905;42.668;23.364;2023-11-19T09:15:19;5.15;;;3.40;;
28625;SDS011;18905;42.668;23.364;2023-11-19T09:17:45;5.07;;;2.97;;
28625;SDS011;18905;42.668;23.364;2023-11-19T09:20:10;5.78;;;3.30;;
28625;SDS011;18905;42.668;23.364;2023-11-19T09:22:39;6.40;;;4.18;;
28625;SDS011;18905;42.668;23.364;2023-11-19T09:25:05;7.72;;;3.75;;
28625;SDS011;18905;42.668;23.364;2023-11-19T09:27:31;5.22;;;3.63;;
28625;SDS011;18905;42.668;23.364;2023-11-19T09:29:56;4.85;;;3.22;;
28625;SDS011;18905;42.668;23.364;2023-11-19T09:32:23;7.22;;;3.95;;
28625;SDS011;18905;42.668;23.364;2023-11-19T09:34:49;4.25;;;3.40;;
28625;SDS011;18905;42.668;23.364;2023-11-19T09:37:14;4.75;;;3.50;;
28625;SDS011;18905;42.668;23.364;2023-11-19T09:39:40;5.05;;;3.03;;
28625;SDS011;18905;42.668;23.364;2023-11-19T09:42:08;4.15;;;3.08;;
28625;SDS011;18905;42.668;23.364;2023-11-19T09:44:34;4.63;;;3.28;;
28625;SDS011;18905;42.668;23.364;2023-11-19T09:47:03;3.63;;;2.92;;
28625;SDS011;18905;42.668;23.364;2023-11-19T09:49:30;3.58;;;2.78;;
28625;SDS011;18905;42.668;23.364;2023-11-19T09:51:56;6.15;;;3.47;;
28625;SDS011;18905;42.668;23.364;2023-11-19T09:54:21;4.97;;;3.08;;
28625;SDS011;18905;42.668;23.364;2023-11-19T09:56:47;5.15;;;3.35;;
28625;SDS011;18905;42.668;23.364;2023-11-19T09:59:13;4.53;;;3.03;;
28625;SDS011;18905;42.668;23.364;2023-11-19T10:01:38;8.23;;;3.40;;
28625;SDS011;18905;42.668;23.364;2023-11-19T10:04:05;6.78;;;3.80;;
28625;SDS011;18905;42.668;23.364;2023-11-19T10:06:32;5.15;;;3.22;;
28625;SDS011;18905;42.668;23.364;2023-11-19T10:08:57;4.45;;;3.70;;
28625;SDS011;18905;42.668;23.364;2023-11-19T10:11:24;5.35;;;3.00;;
28625;SDS011;18905;42.668;23.364;2023-11-19T10:13:49;3.78;;;2.35;;
28625;SDS011;18905;42.668;23.364;2023-11-19T10:16:17;5.53;;;3.53;;
28625;SDS011;18905;42.668;23.364;2023-11-19T10:18:45;4.80;;;3.42;;
28625;SDS011;18905;42.668;23.364;2023-11-19T10:21:12;3.58;;;2.97;;
28625;SDS011;18905;42.668;23.364;2023-11-19T10:23:57;4.07;;;2.53;;
28625;SDS011;18905;42.668;23.364;2023-11-19T10:26:25;8.93;;;3.45;;
28625;SDS011;18905;42.668;23.364;2023-11-19T10:28:52;4.40;;;2.90;;
28625;SDS011;18905;42.668;23.364;2023-11-19T10:31:18;5.57;;;3.30;;
28625;SDS011;18905;42.668;23.364;2023-11-19T10:33:45;7.05;;;3.55;;
28625;SDS011;18905;42.668;23.364;2023-11-19T10:36:13;5.70;;;3.63;;
28625;SDS011;18905;42.668;23.364;2023-11-19T10:38:39;3.55;;;2.38;;
28625;SDS011;18905;42.668;23.364;2023-11-19T10:41:06;4.90;;;3.55;;
28625;SDS011;18905;42.668;23.364;2023-11-19T10:43:42;3.97;;;3.03;;
28625;SDS011;18905;42.668;23.364;2023-11-19T10:46:13;4.10;;;3.22;;
28625;SDS011;18905;42.668;23.364;2023-11-19T10:48:39;9.82;;;3.35;;
28625;SDS011;18905;42.668;23.364;2023-11-19T10:51:05;4.78;;;3.20;;
28625;SDS011;18905;42.668;23.364;2023-11-19T10:53:33;5.40;;;3.33;;
28625;SDS011;18905;42.668;23.364;2023-11-19T10:56:02;4.55;;;3.15;;
28625;SDS011;18905;42.668;23.364;2023-11-19T10:58:32;3.33;;;2.15;;
28625;SDS011;18905;42.668;23.364;2023-11-19T11:01:01;4.15;;;2.90;;
28625;SDS011;18905;42.668;23.364;2023-11-19T11:03:31;5.18;;;3.63;;
28625;SDS011;18905;42.668;23.364;2023-11-19T11:06:04;3.30;;;2.67;;
28625;SDS011;18905;42.668;23.364;2023-11-19T11:08:30;5.68;;;3.40;;
28625;SDS011;18905;42.668;23.364;2023-11-19T11:10:56;4.00;;;3.35;;
28625;SDS011;18905;42.668;23.364;2023-11-19T11:13:23;4.22;;;3.15;;
28625;SDS011;18905;42.668;23.364;2023-11-19T11:15:49;4.95;;;2.75;;
28625;SDS011;18905;42.668;23.364;2023-11-19T11:18:16;3.75;;;2.83;;
28625;SDS011;18905;42.668;23.364;2023-11-19T11:20:45;5.05;;;2.88;;
28625;SDS011;18905;42.668;23.364;2023-11-19T11:26:00;7.38;;;2.97;;
28625;SDS011;18905;42.668;23.364;2023-11-19T11:28:56;5.10;;;3.15;;
28625;SDS011;18905;42.668;23.364;2023-11-19T11:39:27;4.00;;;2.80;;
28625;SDS011;18905;42.668;23.364;2023-11-19T11:42:39;4.25;;;2.55;;
28625;SDS011;18905;42.668;23.364;2023-11-19T11:50:13;2.97;;;2.40;;
28625;SDS011;18905;42.668;23.364;2023-11-19T11:55:24;4.50;;;2.25;;
28625;SDS011;18905;42.668;23.364;2023-11-19T11:57:53;3.30;;;2.50;;
28625;SDS011;18905;42.668;23.364;2023-11-19T12:00:38;3.13;;;2.60;;
28625;SDS011;18905;42.668;23.364;2023-11-19T12:03:05;5.90;;;2.58;;
28625;SDS011;18905;42.668;23.364;2023-11-19T12:05:32;2.38;;;1.92;;
28625;SDS011;18905;42.668;23.364;2023-11-19T12:08:05;3.75;;;2.72;;
28625;SDS011;18905;42.668;23.364;2023-11-19T12:10:33;3.97;;;2.58;;
28625;SDS011;18905;42.668;23.364;2023-11-19T12:13:08;4.20;;;2.65;;
28625;SDS011;18905;42.668;23.364;2023-11-19T12:15:48;4.18;;;2.63;;
28625;SDS011;18905;42.668;23.364;2023-11-19T12:18:29;4.15;;;2.95;;
28625;SDS011;18905;42.668;23.364;2023-11-19T12:20:56;5.28;;;2.97;;
28625;SDS011;18905;42.668;23.364;2023-11-19T12:23:23;4.55;;;3.00;;
28625;SDS011;18905;42.668;23.364;2023-11-19T12:25:48;3.92;;;3.20;;
28625;SDS011;18905;42.668;23.364;2023-11-19T12:28:15;5.10;;;3.10;;
28625;SDS011;18905;42.668;23.364;2023-11-19T12:30:44;4.82;;;3.30;;
28625;SDS011;18905;42.668;23.364;2023-11-19T12:33:11;5.47;;;3.38;;
28625;SDS011;18905;42.668;23.364;2023-11-19T12:35:40;4.25;;;3.20;;
28625;SDS011;18905;42.668;23.364;2023-11-19T12:38:07;6.18;;;3.13;;
28625;SDS011;18905;42.668;23.364;2023-11-19T12:40:33;3.67;;;2.83;;
28625;SDS011;18905;42.668;23.364;2023-11-19T12:42:59;7.03;;;3.78;;
28625;SDS011;18905;42.668;23.364;2023-11-19T12:45:34;6.10;;;3.58;;
28625;SDS011;18905;42.668;23.364;2023-11-19T12:48:07;4.97;;;3.28;;
28625;SDS011;18905;42.668;23.364;2023-11-19T12:53:47;7.13;;;4.30;;
28625;SDS011;18905;42.668;23.364;2023-11-19T12:56:23;5.32;;;3.60;;
28625;SDS011;18905;42.668;23.364;2023-11-19T12:58:49;5.18;;;3.58;;
28625;SDS011;18905;42.668;23.364;2023-11-19T13:01:15;6.57;;;4.22;;
28625;SDS011;18905;42.668;23.364;2023-11-19T13:03:43;6.35;;;3.58;;
28625;SDS011;18905;42.668;23.364;2023-11-19T13:06:09;5.93;;;3.40;;
28625;SDS011;18905;42.668;23.364;2023-11-19T13:08:47;7.47;;;3.97;;
28625;SDS011;18905;42.668;23.364;2023-11-19T13:11:31;5.07;;;3.35;;
28625;SDS011;18905;42.668;23.364;2023-11-19T13:13:59;7.15;;;3.90;;
28625;SDS011;18905;42.668;23.364;2023-11-19T13:16:26;4.57;;;3.08;;
28625;SDS011;18905;42.668;23.364;2023-11-19T13:18:52;4.68;;;3.30;;
28625;SDS011;18905;42.668;23.364;2023-11-19T13:21:17;5.50;;;3.88;;
28625;SDS011;18905;42.668;23.364;2023-11-19T13:23:43;5.22;;;3.53;;
28625;SDS011;18905;42.668;23.364;2023-11-19T13:26:09;4.32;;;3.42;;
28625;SDS011;18905;42.668;23.364;2023-11-19T13:28:35;5.95;;;3.75;;
28625;SDS011;18905;42.668;23.364;2023-11-19T13:31:01;4.45;;;3.20;;
28625;SDS011;18905;42.668;23.364;2023-11-19T13:33:27;6.47;;;3.97;;
28625;SDS011;18905;42.668;23.364;2023-11-19T13:35:54;4.82;;;3.67;;
28625;SDS011;18905;42.668;23.364;2023-11-19T13:38:20;5.70;;;3.40;;
28625;SDS011;18905;42.668;23.364;2023-11-19T13:40:45;5.18;;;3.85;;
28625;SDS011;18905;42.668;23.364;2023-11-19T13:43:10;8.15;;;3.80;;
28625;SDS011;18905;42.668;23.364;2023-11-19T13:45:36;7.82;;;4.32;;
28625;SDS011;18905;42.668;23.364;2023-11-19T13:48:02;5.53;;;3.78;;
28625;SDS011;18905;42.668;23.364;2023-11-19T13:50:28;8.32;;;4.65;;
28625;SDS011;18905;42.668;23.364;2023-11-19T13:52:54;7.90;;;4.85;;
28625;SDS011;18905;42.668;23.364;2023-11-19T13:55:19;5.93;;;4.30;;
28625;SDS011;18905;42.668;23.364;2023-11-19T13:57:45;6.10;;;4.30;;
28625;SDS011;18905;42.668;23.364;2023-11-19T14:00:11;5.85;;;4.47;;
28625;SDS011;18905;42.668;23.364;2023-11-19T14:02:41;7.13;;;4.32;;
28625;SDS011;18905;42.668;23.364;2023-11-19T14:05:07;6.05;;;4.00;;
28625;SDS011;18905;42.668;23.364;2023-11-19T14:07:33;17.50;;;4.43;;
28625;SDS011;18905;42.668;23.364;2023-11-19T14:09:59;6.25;;;3.92;;
28625;SDS011;18905;42.668;23.364;2023-11-19T14:12:24;6.57;;;3.90;;
28625;SDS011;18905;42.668;23.364;2023-11-19T14:14:50;6.32;;;4.10;;
28625;SDS011;18905;42.668;23.364;2023-11-19T14:17:15;11.30;;;4.97;;
28625;SDS011;18905;42.668;23.364;2023-11-19T14:19:41;8.02;;;4.57;;
28625;SDS011;18905;42.668;23.364;2023-11-19T14:22:07;7.15;;;4.13;;
28625;SDS011;18905;42.668;23.364;2023-11-19T14:24:33;7.38;;;4.70;;
28625;SDS011;18905;42.668;23.364;2023-11-19T14:26:59;8.05;;;4.40;;
28625;SDS011;18905;42.668;23.364;2023-11-19T14:29:25;9.13;;;4.05;;
28625;SDS011;18905;42.668;23.364;2023-11-19T14:31:51;8.20;;;4.75;;
28625;SDS011;18905;42.668;23.364;2023-11-19T14:34:17;7.32;;;4.68;;
28625;SDS011;18905;42.668;23.364;2023-11-19T14:36:44;7.30;;;4.50;;
28625;SDS011;18905;42.668;23.364;2023-11-19T14:39:10;7.75;;;4.78;;
28625;SDS011;18905;42.668;23.364;2023-11-19T14:41:35;8.20;;;4.28;;
28625;SDS011;18905;42.668;23.364;2023-11-19T14:44:00;8.85;;;4.95;;
28625;SDS011;18905;42.668;23.364;2023-11-19T14:46:26;8.02;;;4.57;;
28625;SDS011;18905;42.668;23.364;2023-11-19T14:48:52;5.80;;;4.32;;
28625;SDS011;18905;42.668;23.364;2023-11-19T14:51:17;8.15;;;4.72;;
28625;SDS011;18905;42.668;23.364;2023-11-19T14:53:43;11.32;;;5.47;;
28625;SDS011;18905;42.668;23.364;2023-11-19T14:56:11;11.48;;;5.35;;